sensor_id;sensor_type;location;lat;lon;timestamp;P1;durP1;ratioP1;P2;durP2;ratioP2
4174;SDS011;2101;48.290;14.382;2023-12-29T00:01:08;71.27;;;13.20;;
4174;SDS011;2101;48.290;14.382;2023-12-29T00:03:35;71.63;;;13.27;;
4174;SDS011;2101;48.290;14.382;2023-12-29T00:06:04;68.10;;;12.40;;
4174;SDS011;2101;48.290;14.382;2023-12-29T00:08:30;68.23;;;11.93;;
4174;SDS011;2101;48.290;14.382;2023-12-29T00:10:57;72.57;;;14.07;;
4174;SDS011;2101;48.290;14.382;2023-12-29T00:13:23;72.80;;;13.23;;
4174;SDS011;2101;48.290;14.382;2023-12-29T00:15:53;64.53;;;12.63;;
4174;SDS011;2101;48.290;14.382;2023-12-29T00:18:20;80.13;;;15.80;;
4174;SDS011;2101;48.290;14.382;2023-12-29T00:20:46;83.80;;;16.60;;
4174;SDS011;2101;48.290;14.382;2023-12-29T00:23:12;95.27;;;17.83;;
4174;SDS011;2101;48.290;14.382;2023-12-29T00:25:38;102.50;;;20.10;;
4174;SDS011;2101;48.290;14.382;2023-12-29T00:28:05;92.30;;;18.23;;
4174;SDS011;2101;48.290;14.382;2023-12-29T00:30:31;96.50;;;18.33;;
4174;SDS011;2101;48.290;14.382;2023-12-29T00:32:57;91.17;;;16.80;;
4174;SDS011;2101;48.290;14.382;2023-12-29T00:35:23;88.33;;;15.77;;
4174;SDS011;2101;48.290;14.382;2023-12-29T00:37:49;82.63;;;16.33;;
4174;SDS011;2101;48.290;14.382;2023-12-29T00:40:16;80.17;;;16.20;;
4174;SDS011;2101;48.290;14.382;2023-12-29T00:42:42;96.37;;;16.40;;
4174;SDS011;2101;48.290;14.382;2023-12-29T00:45:08;85.60;;;16.87;;
4174;SDS011;2101;48.290;14.382;2023-12-29T00:47:34;85.87;;;18.67;;
4174;SDS011;2101;48.290;14.382;2023-12-29T00:50:01;85.40;;;14.47;;
4174;SDS011;2101;48.290;14.382;2023-12-29T00:52:27;81.23;;;14.43;;
4174;SDS011;2101;48.290;14.382;2023-12-29T00:54:53;98.97;;;17.37;;
4174;SDS011;2101;48.290;14.382;2023-12-29T00:57:19;83.33;;;15.67;;
4174;SDS011;2101;48.290;14.382;2023-12-29T00:59:46;108.83;;;20.80;;
4174;SDS011;2101;48.290;14.382;2023-12-29T01:02:13;108.90;;;22.70;;
4174;SDS011;2101;48.290;14.382;2023-12-29T01:04:39;123.73;;;21.97;;
4174;SDS011;2101;48.290;14.382;2023-12-29T01:07:05;121.23;;;23.53;;
4174;SDS011;2101;48.290;14.382;2023-12-29T01:09:31;139.97;;;25.60;;
4174;SDS011;2101;48.290;14.382;2023-12-29T01:11:57;127.67;;;27.70;;
4174;SDS011;2101;48.290;14.382;2023-12-29T01:14:23;126.73;;;23.70;;
4174;SDS011;2101;48.290;14.382;2023-12-29T01:16:49;125.10;;;22.77;;
4174;SDS011;2101;48.290;14.382;2023-12-29T01:19:15;113.60;;;21.53;;
4174;SDS011;2101;48.290;14.382;2023-12-29T01:21:43;102.27;;;20.40;;
4174;SDS011;2101;48.290;14.382;2023-12-29T01:24:09;98.50;;;18.20;;
4174;SDS011;2101;48.290;14.382;2023-12-29T01:26:38;103.93;;;21.17;;
4174;SDS011;2101;48.290;14.382;2023-12-29T01:29:05;96.37;;;19.13;;
4174;SDS011;2101;48.290;14.382;2023-12-29T01:31:31;104.80;;;19.97;;
4174;SDS011;2101;48.290;14.382;2023-12-29T01:33:57;117.10;;;21.83;;
4174;SDS011;2101;48.290;14.382;2023-12-29T01:36:23;111.30;;;21.77;;
4174;SDS011;2101;48.290;14.382;2023-12-29T01:38:49;93.13;;;19.00;;
4174;SDS011;2101;48.290;14.382;2023-12-29T01:41:15;92.00;;;16.20;;
4174;SDS011;2101;48.290;14.382;2023-12-29T01:44:17;83.97;;;16.33;;
4174;SDS011;2101;48.290;14.382;2023-12-29T01:46:34;84.03;;;17.47;;
4174;SDS011;2101;48.290;14.382;2023-12-29T01:49:00;110.83;;;18.40;;
4174;SDS011;2101;48.290;14.382;2023-12-29T01:51:27;87.60;;;17.13;;
4174;SDS011;2101;48.290;14.382;2023-12-29T01:53:54;80.77;;;16.30;;
4174;SDS011;2101;48.290;14.382;2023-12-29T01:56:20;87.53;;;16.07;;
4174;SDS011;2101;48.290;14.382;2023-12-29T01:58:48;75.60;;;15.80;;
4174;SDS011;2101;48.290;14.382;2023-12-29T02:01:15;89.00;;;17.00;;
4174;SDS011;2101;48.290;14.382;2023-12-29T02:03:42;92.87;;;17.00;;
4174;SDS011;2101;48.290;14.382;2023-12-29T02:06:08;91.77;;;17.23;;
4174;SDS011;2101;48.290;14.382;2023-12-29T02:08:40;86.60;;;17.20;;
4174;SDS011;2101;48.290;14.382;2023-12-29T02:11:06;91.17;;;14.80;;
4174;SDS011;2101;48.290;14.382;2023-12-29T02:13:33;92.27;;;17.10;;
4174;SDS011;2101;48.290;14.382;2023-12-29T02:16:00;78.17;;;13.70;;
4174;SDS011;2101;48.290;14.382;2023-12-29T02:18:29;65.27;;;11.03;;
4174;SDS011;2101;48.290;14.382;2023-12-29T02:20:56;67.57;;;13.33;;
4174;SDS011;2101;48.290;14.382;2023-12-29T02:23:22;64.10;;;10.27;;
4174;SDS011;2101;48.290;14.382;2023-12-29T02:25:48;61.10;;;9.00;;
4174;SDS011;2101;48.290;14.382;2023-12-29T02:28:20;66.57;;;10.23;;
4174;SDS011;2101;48.290;14.382;2023-12-29T02:30:50;70.33;;;12.17;;
4174;SDS011;2101;48.290;14.382;2023-12-29T02:33:19;65.60;;;10.93;;
4174;SDS011;2101;48.290;14.382;2023-12-29T02:35:45;70.40;;;10.50;;
4174;SDS011;2101;48.290;14.382;2023-12-29T02:38:14;67.97;;;10.73;;
4174;SDS011;2101;48.290;14.382;2023-12-29T02:40:40;69.17;;;11.37;;
4174;SDS011;2101;48.290;14.382;2023-12-29T02:43:08;67.67;;;11.03;;
4174;SDS011;2101;48.290;14.382;2023-12-29T02:45:34;75.27;;;13.17;;
4174;SDS011;2101;48.290;14.382;2023-12-29T02:48:00;81.60;;;12.90;;
4174;SDS011;2101;48.290;14.382;2023-12-29T02:50:26;69.10;;;11.17;;
4174;SDS011;2101;48.290;14.382;2023-12-29T02:52:52;59.20;;;9.70;;
4174;SDS011;2101;48.290;14.382;2023-12-29T02:55:18;68.83;;;10.13;;
4174;SDS011;2101;48.290;14.382;2023-12-29T02:57:44;66.10;;;10.43;;
4174;SDS011;2101;48.290;14.382;2023-12-29T03:00:10;72.67;;;11.43;;
4174;SDS011;2101;48.290;14.382;2023-12-29T03:02:37;66.20;;;10.37;;
4174;SDS011;2101;48.290;14.382;2023-12-29T03:05:03;63.80;;;11.07;;
4174;SDS011;2101;48.290;14.382;2023-12-29T03:07:29;74.13;;;10.40;;
4174;SDS011;2101;48.290;14.382;2023-12-29T03:09:55;67.40;;;10.53;;
4174;SDS011;2101;48.290;14.382;2023-12-29T03:12:21;64.40;;;9.20;;
4174;SDS011;2101;48.290;14.382;2023-12-29T03:14:47;60.40;;;8.80;;
4174;SDS011;2101;48.290;14.382;2023-12-29T03:17:13;56.10;;;7.80;;
4174;SDS011;2101;48.290;14.382;2023-12-29T03:19:39;56.77;;;8.03;;
4174;SDS011;2101;48.290;14.382;2023-12-29T03:22:05;53.87;;;7.90;;
4174;SDS011;2101;48.290;14.382;2023-12-29T03:24:31;60.87;;;6.67;;
4174;SDS011;2101;48.290;14.382;2023-12-29T03:26:57;52.10;;;6.93;;
4174;SDS011;2101;48.290;14.382;2023-12-29T03:29:24;72.43;;;8.40;;
4174;SDS011;2101;48.290;14.382;2023-12-29T03:31:50;65.77;;;12.23;;
4174;SDS011;2101;48.290;14.382;2023-12-29T03:34:16;75.57;;;13.23;;
4174;SDS011;2101;48.290;14.382;2023-12-29T03:36:42;75.80;;;14.77;;
4174;SDS011;2101;48.290;14.382;2023-12-29T03:39:08;79.67;;;13.27;;
4174;SDS011;2101;48.290;14.382;2023-12-29T03:41:34;71.27;;;15.10;;
4174;SDS011;2101;48.290;14.382;2023-12-29T03:44:00;72.97;;;14.23;;
4174;SDS011;2101;48.290;14.382;2023-12-29T03:46:28;84.20;;;15.27;;
4174;SDS011;2101;48.290;14.382;2023-12-29T03:48:54;70.93;;;14.00;;
4174;SDS011;2101;48.290;14.382;2023-12-29T03:51:20;85.50;;;17.70;;
4174;SDS011;2101;48.290;14.382;2023-12-29T03:53:46;80.03;;;15.63;;
4174;SDS011;2101;48.290;14.382;2023-12-29T03:56:13;75.27;;;15.10;;
4174;SDS011;2101;48.290;14.382;2023-12-29T03:58:40;75.90;;;14.10;;
4174;SDS011;2101;48.290;14.382;2023-12-29T04:01:10;87.03;;;16.00;;
4174;SDS011;2101;48.290;14.382;2023-12-29T04:03:36;81.00;;;14.23;;
4174;SDS011;2101;48.290;14.382;2023-12-29T04:06:02;81.90;;;13.60;;
4174;SDS011;2101;48.290;14.382;2023-12-29T04:08:29;84.87;;;14.10;;
4174;SDS011;2101;48.290;14.382;2023-12-29T04:10:55;76.40;;;13.10;;
4174;SDS011;2101;48.290;14.382;2023-12-29T04:13:21;81.23;;;11.70;;
4174;SDS011;2101;48.290;14.382;2023-12-29T04:15:47;75.00;;;12.37;;
4174;SDS011;2101;48.290;14.382;2023-12-29T04:18:13;74.70;;;11.80;;
4174;SDS011;2101;48.290;14.382;2023-12-29T04:20:39;65.50;;;11.67;;
4174;SDS011;2101;48.290;14.382;2023-12-29T04:23:05;77.93;;;11.50;;
4174;SDS011;2101;48.290;14.382;2023-12-29T04:25:32;63.40;;;9.43;;
4174;SDS011;2101;48.290;14.382;2023-12-29T04:27:59;67.20;;;9.60;;
4174;SDS011;2101;48.290;14.382;2023-12-29T04:30:25;69.63;;;9.93;;
4174;SDS011;2101;48.290;14.382;2023-12-29T04:32:51;79.07;;;9.93;;
4174;SDS011;2101;48.290;14.382;2023-12-29T04:35:17;64.50;;;9.30;;
4174;SDS011;2101;48.290;14.382;2023-12-29T04:37:43;65.70;;;10.27;;
4174;SDS011;2101;48.290;14.382;2023-12-29T04:40:11;65.17;;;10.50;;
4174;SDS011;2101;48.290;14.382;2023-12-29T04:42:37;68.10;;;9.83;;
4174;SDS011;2101;48.290;14.382;2023-12-29T04:45:04;62.50;;;10.07;;
4174;SDS011;2101;48.290;14.382;2023-12-29T04:47:30;61.20;;;10.23;;
4174;SDS011;2101;48.290;14.382;2023-12-29T04:49:56;67.13;;;11.00;;
4174;SDS011;2101;48.290;14.382;2023-12-29T04:52:22;59.07;;;8.40;;
4174;SDS011;2101;48.290;14.382;2023-12-29T04:54:48;61.87;;;8.73;;
4174;SDS011;2101;48.290;14.382;2023-12-29T04:57:15;58.73;;;8.47;;
4174;SDS011;2101;48.290;14.382;2023-12-29T04:59:41;63.60;;;8.40;;
4174;SDS011;2101;48.290;14.382;2023-12-29T05:02:07;56.17;;;8.77;;
4174;SDS011;2101;48.290;14.382;2023-12-29T05:04:33;58.60;;;8.50;;
4174;SDS011;2101;48.290;14.382;2023-12-29T05:06:59;56.90;;;9.47;;
4174;SDS011;2101;48.290;14.382;2023-12-29T05:09:25;59.23;;;8.33;;
4174;SDS011;2101;48.290;14.382;2023-12-29T05:11:51;69.67;;;8.87;;
4174;SDS011;2101;48.290;14.382;2023-12-29T05:14:17;64.53;;;8.10;;
4174;SDS011;2101;48.290;14.382;2023-12-29T05:16:44;54.17;;;7.73;;
4174;SDS011;2101;48.290;14.382;2023-12-29T05:19:10;59.10;;;9.17;;
4174;SDS011;2101;48.290;14.382;2023-12-29T05:21:36;69.67;;;9.60;;
4174;SDS011;2101;48.290;14.382;2023-12-29T05:24:02;58.30;;;9.10;;
4174;SDS011;2101;48.290;14.382;2023-12-29T05:26:29;54.17;;;8.00;;
4174;SDS011;2101;48.290;14.382;2023-12-29T05:28:55;53.60;;;7.50;;
4174;SDS011;2101;48.290;14.382;2023-12-29T05:31:21;56.03;;;7.80;;
4174;SDS011;2101;48.290;14.382;2023-12-29T05:33:47;64.13;;;7.40;;
4174;SDS011;2101;48.290;14.382;2023-12-29T05:36:13;56.60;;;6.80;;
4174;SDS011;2101;48.290;14.382;2023-12-29T05:38:39;68.70;;;7.63;;
4174;SDS011;2101;48.290;14.382;2023-12-29T05:41:06;54.93;;;7.27;;
4174;SDS011;2101;48.290;14.382;2023-12-29T05:43:32;48.20;;;5.83;;
4174;SDS011;2101;48.290;14.382;2023-12-29T05:45:59;47.17;;;5.93;;
4174;SDS011;2101;48.290;14.382;2023-12-29T05:48:26;49.17;;;5.83;;
4174;SDS011;2101;48.290;14.382;2023-12-29T05:50:52;61.83;;;6.43;;
4174;SDS011;2101;48.290;14.382;2023-12-29T05:53:18;53.20;;;6.20;;
4174;SDS011;2101;48.290;14.382;2023-12-29T05:55:44;53.27;;;6.77;;
4174;SDS011;2101;48.290;14.382;2023-12-29T05:58:11;54.60;;;6.87;;
4174;SDS011;2101;48.290;14.382;2023-12-29T06:00:37;52.37;;;6.43;;
4174;SDS011;2101;48.290;14.382;2023-12-29T06:03:04;55.23;;;7.83;;
4174;SDS011;2101;48.290;14.382;2023-12-29T06:05:33;58.87;;;6.30;;
4174;SDS011;2101;48.290;14.382;2023-12-29T06:07:59;63.07;;;7.60;;
4174;SDS011;2101;48.290;14.382;2023-12-29T06:10:25;59.13;;;9.53;;
4174;SDS011;2101;48.290;14.382;2023-12-29T06:12:52;59.60;;;8.43;;
4174;SDS011;2101;48.290;14.382;2023-12-29T06:15:18;56.17;;;7.40;;
4174;SDS011;2101;48.290;14.382;2023-12-29T06:17:45;55.83;;;7.10;;
4174;SDS011;2101;48.290;14.382;2023-12-29T06:20:11;55.80;;;6.50;;
4174;SDS011;2101;48.290;14.382;2023-12-29T06:22:40;54.23;;;7.33;;
4174;SDS011;2101;48.290;14.382;2023-12-29T06:25:10;59.23;;;6.60;;
4174;SDS011;2101;48.290;14.382;2023-12-29T06:27:36;51.17;;;5.83;;
4174;SDS011;2101;48.290;14.382;2023-12-29T06:30:06;57.00;;;6.20;;
4174;SDS011;2101;48.290;14.382;2023-12-29T06:32:32;52.80;;;5.90;;
4174;SDS011;2101;48.290;14.382;2023-12-29T06:34:59;53.70;;;6.57;;
4174;SDS011;2101;48.290;14.382;2023-12-29T06:37:25;53.90;;;7.07;;
4174;SDS011;2101;48.290;14.382;2023-12-29T06:39:51;55.77;;;7.13;;
4174;SDS011;2101;48.290;14.382;2023-12-29T06:42:17;54.73;;;7.00;;
4174;SDS011;2101;48.290;14.382;2023-12-29T06:44:43;53.33;;;7.70;;
4174;SDS011;2101;48.290;14.382;2023-12-29T06:47:09;62.40;;;7.23;;
4174;SDS011;2101;48.290;14.382;2023-12-29T06:49:36;54.83;;;7.23;;
4174;SDS011;2101;48.290;14.382;2023-12-29T06:52:03;54.90;;;8.00;;
4174;SDS011;2101;48.290;14.382;2023-12-29T06:54:29;58.93;;;9.30;;
4174;SDS011;2101;48.290;14.382;2023-12-29T06:56:55;71.03;;;11.30;;
4174;SDS011;2101;48.290;14.382;2023-12-29T06:59:22;72.17;;;11.30;;
4174;SDS011;2101;48.290;14.382;2023-12-29T07:01:48;59.87;;;9.60;;
4174;SDS011;2101;48.290;14.382;2023-12-29T07:04:14;65.30;;;9.37;;
4174;SDS011;2101;48.290;14.382;2023-12-29T07:06:41;52.33;;;7.20;;
4174;SDS011;2101;48.290;14.382;2023-12-29T07:09:07;56.60;;;8.50;;
4174;SDS011;2101;48.290;14.382;2023-12-29T07:11:34;56.33;;;7.47;;
4174;SDS011;2101;48.290;14.382;2023-12-29T07:14:01;61.30;;;7.63;;
4174;SDS011;2101;48.290;14.382;2023-12-29T07:16:27;58.80;;;7.70;;
4174;SDS011;2101;48.290;14.382;2023-12-29T07:18:53;53.23;;;7.13;;
4174;SDS011;2101;48.290;14.382;2023-12-29T07:21:19;62.80;;;9.47;;
4174;SDS011;2101;48.290;14.382;2023-12-29T07:23:45;70.10;;;12.70;;
4174;SDS011;2101;48.290;14.382;2023-12-29T07:26:12;72.70;;;11.80;;
4174;SDS011;2101;48.290;14.382;2023-12-29T07:28:41;71.63;;;11.00;;
4174;SDS011;2101;48.290;14.382;2023-12-29T07:31:07;85.63;;;12.80;;
4174;SDS011;2101;48.290;14.382;2023-12-29T07:33:35;77.77;;;11.13;;
4174;SDS011;2101;48.290;14.382;2023-12-29T07:36:01;61.57;;;9.90;;
4174;SDS011;2101;48.290;14.382;2023-12-29T07:38:27;64.70;;;9.63;;
4174;SDS011;2101;48.290;14.382;2023-12-29T07:40:53;65.03;;;10.70;;
4174;SDS011;2101;48.290;14.382;2023-12-29T07:43:20;61.27;;;9.87;;
4174;SDS011;2101;48.290;14.382;2023-12-29T07:45:46;66.50;;;10.40;;
4174;SDS011;2101;48.290;14.382;2023-12-29T07:48:12;71.07;;;12.30;;
4174;SDS011;2101;48.290;14.382;2023-12-29T07:50:38;73.93;;;11.90;;
4174;SDS011;2101;48.290;14.382;2023-12-29T07:53:04;66.00;;;10.10;;
4174;SDS011;2101;48.290;14.382;2023-12-29T07:55:31;67.17;;;11.67;;
4174;SDS011;2101;48.290;14.382;2023-12-29T07:57:57;64.83;;;11.70;;
4174;SDS011;2101;48.290;14.382;2023-12-29T08:00:24;67.87;;;11.57;;
4174;SDS011;2101;48.290;14.382;2023-12-29T08:02:54;71.13;;;12.30;;
4174;SDS011;2101;48.290;14.382;2023-12-29T08:05:20;79.17;;;13.27;;
4174;SDS011;2101;48.290;14.382;2023-12-29T08:07:46;71.10;;;10.70;;
4174;SDS011;2101;48.290;14.382;2023-12-29T08:10:12;69.90;;;12.30;;
4174;SDS011;2101;48.290;14.382;2023-12-29T08:12:38;80.83;;;12.60;;
4174;SDS011;2101;48.290;14.382;2023-12-29T08:15:04;74.80;;;12.10;;
4174;SDS011;2101;48.290;14.382;2023-12-29T08:17:31;73.67;;;11.80;;
4174;SDS011;2101;48.290;14.382;2023-12-29T08:19:57;62.47;;;10.50;;
4174;SDS011;2101;48.290;14.382;2023-12-29T08:22:23;70.53;;;13.40;;
4174;SDS011;2101;48.290;14.382;2023-12-29T08:24:50;77.20;;;13.10;;
4174;SDS011;2101;48.290;14.382;2023-12-29T08:27:22;76.57;;;13.83;;
4174;SDS011;2101;48.290;14.382;2023-12-29T08:29:49;75.77;;;13.10;;
4174;SDS011;2101;48.290;14.382;2023-12-29T08:32:15;72.57;;;12.60;;
4174;SDS011;2101;48.290;14.382;2023-12-29T08:34:41;72.90;;;13.07;;
4174;SDS011;2101;48.290;14.382;2023-12-29T08:37:07;64.23;;;12.27;;
4174;SDS011;2101;48.290;14.382;2023-12-29T08:39:33;78.50;;;12.80;;
4174;SDS011;2101;48.290;14.382;2023-12-29T08:41:59;74.90;;;11.47;;
4174;SDS011;2101;48.290;14.382;2023-12-29T08:44:25;77.67;;;10.63;;
4174;SDS011;2101;48.290;14.382;2023-12-29T08:46:51;57.20;;;7.97;;
4174;SDS011;2101;48.290;14.382;2023-12-29T08:49:17;60.43;;;7.50;;
4174;SDS011;2101;48.290;14.382;2023-12-29T08:51:44;53.60;;;6.50;;
4174;SDS011;2101;48.290;14.382;2023-12-29T08:54:10;53.90;;;6.73;;
4174;SDS011;2101;48.290;14.382;2023-12-29T08:56:36;53.80;;;5.90;;
4174;SDS011;2101;48.290;14.382;2023-12-29T08:59:02;62.93;;;9.43;;
4174;SDS011;2101;48.290;14.382;2023-12-29T09:01:28;55.30;;;7.40;;
4174;SDS011;2101;48.290;14.382;2023-12-29T09:03:54;61.40;;;7.80;;
4174;SDS011;2101;48.290;14.382;2023-12-29T09:06:20;53.50;;;6.60;;
4174;SDS011;2101;48.290;14.382;2023-12-29T09:08:46;84.93;;;8.87;;
4174;SDS011;2101;48.290;14.382;2023-12-29T09:11:12;49.83;;;4.10;;
4174;SDS011;2101;48.290;14.382;2023-12-29T09:13:38;50.50;;;6.23;;
4174;SDS011;2101;48.290;14.382;2023-12-29T09:16:04;65.93;;;6.30;;
4174;SDS011;2101;48.290;14.382;2023-12-29T09:18:31;49.20;;;5.50;;
4174;SDS011;2101;48.290;14.382;2023-12-29T09:20:57;54.07;;;5.27;;
4174;SDS011;2101;48.290;14.382;2023-12-29T09:23:23;45.93;;;4.40;;
4174;SDS011;2101;48.290;14.382;2023-12-29T09:25:52;61.60;;;12.13;;
4174;SDS011;2101;48.290;14.382;2023-12-29T09:28:19;65.43;;;11.10;;
4174;SDS011;2101;48.290;14.382;2023-12-29T09:30:45;75.93;;;11.10;;
4174;SDS011;2101;48.290;14.382;2023-12-29T09:33:11;64.27;;;12.10;;
4174;SDS011;2101;48.290;14.382;2023-12-29T09:35:38;67.17;;;12.23;;
4174;SDS011;2101;48.290;14.382;2023-12-29T09:38:04;73.03;;;11.73;;
4174;SDS011;2101;48.290;14.382;2023-12-29T09:40:30;72.83;;;11.30;;
4174;SDS011;2101;48.290;14.382;2023-12-29T09:42:56;71.83;;;12.17;;
4174;SDS011;2101;48.290;14.382;2023-12-29T09:45:23;67.30;;;11.27;;
4174;SDS011;2101;48.290;14.382;2023-12-29T09:47:52;60.60;;;10.10;;
4174;SDS011;2101;48.290;14.382;2023-12-29T09:50:20;59.73;;;10.07;;
4174;SDS011;2101;48.290;14.382;2023-12-29T09:52:48;69.13;;;12.63;;
4174;SDS011;2101;48.290;14.382;2023-12-29T09:55:17;72.90;;;12.27;;
4174;SDS011;2101;48.290;14.382;2023-12-29T09:57:43;65.50;;;12.60;;
4174;SDS011;2101;48.290;14.382;2023-12-29T10:00:10;72.33;;;11.83;;
4174;SDS011;2101;48.290;14.382;2023-12-29T10:02:37;68.97;;;12.73;;
4174;SDS011;2101;48.290;14.382;2023-12-29T10:05:04;68.50;;;12.03;;
4174;SDS011;2101;48.290;14.382;2023-12-29T10:07:37;67.17;;;10.00;;
4174;SDS011;2101;48.290;14.382;2023-12-29T10:10:03;64.90;;;8.50;;
4174;SDS011;2101;48.290;14.382;2023-12-29T10:12:29;59.10;;;8.60;;
4174;SDS011;2101;48.290;14.382;2023-12-29T10:15:00;61.07;;;8.53;;
4174;SDS011;2101;48.290;14.382;2023-12-29T10:20:16;67.30;;;10.20;;
4174;SDS011;2101;48.290;14.382;2023-12-29T10:22:51;57.20;;;8.33;;
4174;SDS011;2101;48.290;14.382;2023-12-29T10:25:20;59.13;;;7.07;;
4174;SDS011;2101;48.290;14.382;2023-12-29T10:27:48;49.77;;;5.93;;
4174;SDS011;2101;48.290;14.382;2023-12-29T10:30:14;50.00;;;5.20;;
4174;SDS011;2101;48.290;14.382;2023-12-29T10:32:41;55.80;;;6.13;;
4174;SDS011;2101;48.290;14.382;2023-12-29T10:35:07;55.40;;;6.70;;
4174;SDS011;2101;48.290;14.382;2023-12-29T10:37:34;52.13;;;6.80;;
4174;SDS011;2101;48.290;14.382;2023-12-29T10:40:01;50.07;;;6.13;;
4174;SDS011;2101;48.290;14.382;2023-12-29T10:42:27;53.13;;;6.13;;
4174;SDS011;2101;48.290;14.382;2023-12-29T10:45:06;62.70;;;10.83;;
4174;SDS011;2101;48.290;14.382;2023-12-29T10:47:33;58.67;;;10.10;;
4174;SDS011;2101;48.290;14.382;2023-12-29T10:50:03;69.90;;;10.20;;
4174;SDS011;2101;48.290;14.382;2023-12-29T10:52:30;61.40;;;8.77;;
4174;SDS011;2101;48.290;14.382;2023-12-29T10:55:09;58.53;;;8.30;;
4174;SDS011;2101;48.290;14.382;2023-12-29T10:57:39;62.33;;;9.37;;
4174;SDS011;2101;48.290;14.382;2023-12-29T11:00:06;60.10;;;10.27;;
4174;SDS011;2101;48.290;14.382;2023-12-29T11:02:37;76.73;;;12.87;;
4174;SDS011;2101;48.290;14.382;2023-12-29T11:05:07;73.40;;;14.47;;
4174;SDS011;2101;48.290;14.382;2023-12-29T11:07:37;87.00;;;15.80;;
4174;SDS011;2101;48.290;14.382;2023-12-29T11:10:04;81.37;;;13.00;;
4174;SDS011;2101;48.290;14.382;2023-12-29T11:12:32;77.97;;;12.73;;
4174;SDS011;2101;48.290;14.382;2023-12-29T11:14:59;69.40;;;13.97;;
4174;SDS011;2101;48.290;14.382;2023-12-29T11:17:25;71.70;;;13.27;;
4174;SDS011;2101;48.290;14.382;2023-12-29T11:19:52;68.90;;;12.00;;
4174;SDS011;2101;48.290;14.382;2023-12-29T11:22:19;68.40;;;11.33;;
4174;SDS011;2101;48.290;14.382;2023-12-29T11:24:49;68.77;;;11.23;;
4174;SDS011;2101;48.290;14.382;2023-12-29T11:27:15;66.70;;;12.10;;
4174;SDS011;2101;48.290;14.382;2023-12-29T11:29:42;70.40;;;11.17;;
4174;SDS011;2101;48.290;14.382;2023-12-29T11:32:11;68.67;;;11.93;;
4174;SDS011;2101;48.290;14.382;2023-12-29T11:34:40;74.10;;;13.53;;
4174;SDS011;2101;48.290;14.382;2023-12-29T11:37:15;70.80;;;13.37;;
4174;SDS011;2101;48.290;14.382;2023-12-29T11:39:50;71.77;;;12.83;;
4174;SDS011;2101;48.290;14.382;2023-12-29T11:42:22;66.73;;;12.30;;
4174;SDS011;2101;48.290;14.382;2023-12-29T11:44:50;75.03;;;13.23;;
4174;SDS011;2101;48.290;14.382;2023-12-29T11:47:33;68.60;;;13.27;;
4174;SDS011;2101;48.290;14.382;2023-12-29T11:50:00;60.93;;;10.27;;
4174;SDS011;2101;48.290;14.382;2023-12-29T11:52:39;67.17;;;11.27;;
4174;SDS011;2101;48.290;14.382;2023-12-29T11:55:09;67.77;;;8.80;;
4174;SDS011;2101;48.290;14.382;2023-12-29T11:57:35;60.90;;;8.33;;
4174;SDS011;2101;48.290;14.382;2023-12-29T12:00:02;50.13;;;5.83;;
4174;SDS011;2101;48.290;14.382;2023-12-29T12:02:30;55.57;;;7.23;;
4174;SDS011;2101;48.290;14.382;2023-12-29T12:04:58;52.43;;;6.90;;
4174;SDS011;2101;48.290;14.382;2023-12-29T12:09:50;54.57;;;7.80;;
4174;SDS011;2101;48.290;14.382;2023-12-29T12:15:03;60.27;;;9.63;;
4174;SDS011;2101;48.290;14.382;2023-12-29T12:17:31;54.00;;;8.73;;
4174;SDS011;2101;48.290;14.382;2023-12-29T12:20:06;59.10;;;9.03;;
4174;SDS011;2101;48.290;14.382;2023-12-29T12:22:35;65.33;;;9.37;;
4174;SDS011;2101;48.290;14.382;2023-12-29T12:25:02;58.43;;;9.50;;
4174;SDS011;2101;48.290;14.382;2023-12-29T12:27:28;59.87;;;9.27;;
4174;SDS011;2101;48.290;14.382;2023-12-29T12:29:56;62.93;;;8.80;;
4174;SDS011;2101;48.290;14.382;2023-12-29T12:32:24;61.47;;;9.57;;
4174;SDS011;2101;48.290;14.382;2023-12-29T12:34:50;61.60;;;11.00;;
4174;SDS011;2101;48.290;14.382;2023-12-29T12:39:48;62.43;;;11.07;;
4174;SDS011;2101;48.290;14.382;2023-12-29T12:42:15;72.07;;;13.20;;
4174;SDS011;2101;48.290;14.382;2023-12-29T12:44:42;67.97;;;10.23;;
4174;SDS011;2101;48.290;14.382;2023-12-29T12:47:14;61.20;;;10.53;;
4174;SDS011;2101;48.290;14.382;2023-12-29T12:49:41;63.77;;;9.80;;
4174;SDS011;2101;48.290;14.382;2023-12-29T12:52:08;59.77;;;9.47;;
4174;SDS011;2101;48.290;14.382;2023-12-29T12:54:34;66.93;;;9.83;;
4174;SDS011;2101;48.290;14.382;2023-12-29T12:57:01;57.50;;;8.40;;
4174;SDS011;2101;48.290;14.382;2023-12-29T12:59:27;54.00;;;6.00;;
4174;SDS011;2101;48.290;14.382;2023-12-29T13:01:53;56.57;;;6.77;;
4174;SDS011;2101;48.290;14.382;2023-12-29T13:04:19;56.83;;;6.53;;
4174;SDS011;2101;48.290;14.382;2023-12-29T13:06:46;56.33;;;5.53;;
4174;SDS011;2101;48.290;14.382;2023-12-29T13:09:12;53.00;;;4.50;;
4174;SDS011;2101;48.290;14.382;2023-12-29T13:11:39;52.60;;;6.70;;
4174;SDS011;2101;48.290;14.382;2023-12-29T13:14:08;50.60;;;6.80;;
4174;SDS011;2101;48.290;14.382;2023-12-29T13:16:35;51.10;;;4.70;;
4174;SDS011;2101;48.290;14.382;2023-12-29T13:21:48;49.10;;;5.63;;
4174;SDS011;2101;48.290;14.382;2023-12-29T13:24:16;61.23;;;9.57;;
4174;SDS011;2101;48.290;14.382;2023-12-29T13:26:45;62.50;;;10.47;;
4174;SDS011;2101;48.290;14.382;2023-12-29T13:29:17;60.50;;;9.30;;
4174;SDS011;2101;48.290;14.382;2023-12-29T13:31:44;52.17;;;7.00;;
4174;SDS011;2101;48.290;14.382;2023-12-29T13:34:15;50.67;;;6.67;;
4174;SDS011;2101;48.290;14.382;2023-12-29T13:36:43;51.80;;;6.50;;
4174;SDS011;2101;48.290;14.382;2023-12-29T13:41:45;51.20;;;6.53;;
4174;SDS011;2101;48.290;14.382;2023-12-29T13:44:11;53.20;;;5.43;;
4174;SDS011;2101;48.290;14.382;2023-12-29T13:46:37;51.90;;;6.00;;
4174;SDS011;2101;48.290;14.382;2023-12-29T13:49:04;50.00;;;6.00;;
4174;SDS011;2101;48.290;14.382;2023-12-29T13:51:31;51.60;;;6.50;;
4174;SDS011;2101;48.290;14.382;2023-12-29T13:54:01;51.67;;;5.87;;
4174;SDS011;2101;48.290;14.382;2023-12-29T13:56:28;52.43;;;5.97;;
4174;SDS011;2101;48.290;14.382;2023-12-29T13:58:54;50.37;;;5.37;;
4174;SDS011;2101;48.290;14.382;2023-12-29T14:01:20;47.87;;;4.43;;
4174;SDS011;2101;48.290;14.382;2023-12-29T14:03:47;46.90;;;3.90;;
4174;SDS011;2101;48.290;14.382;2023-12-29T14:06:20;46.60;;;4.80;;
4174;SDS011;2101;48.290;14.382;2023-12-29T14:08:46;45.10;;;4.03;;
4174;SDS011;2101;48.290;14.382;2023-12-29T14:11:13;47.83;;;5.00;;
4174;SDS011;2101;48.290;14.382;2023-12-29T14:13:45;47.77;;;4.70;;
4174;SDS011;2101;48.290;14.382;2023-12-29T14:16:14;45.67;;;4.23;;
4174;SDS011;2101;48.290;14.382;2023-12-29T14:21:20;47.63;;;4.43;;
4174;SDS011;2101;48.290;14.382;2023-12-29T14:26:31;46.37;;;3.70;;
4174;SDS011;2101;48.290;14.382;2023-12-29T14:29:04;47.57;;;4.30;;
4174;SDS011;2101;48.290;14.382;2023-12-29T14:31:39;49.27;;;4.87;;
4174;SDS011;2101;48.290;14.382;2023-12-29T14:34:05;45.93;;;3.93;;
4174;SDS011;2101;48.290;14.382;2023-12-29T14:36:35;50.90;;;5.03;;
4174;SDS011;2101;48.290;14.382;2023-12-29T14:39:01;48.23;;;4.60;;
4174;SDS011;2101;48.290;14.382;2023-12-29T14:41:28;50.10;;;4.73;;
4174;SDS011;2101;48.290;14.382;2023-12-29T14:43:54;48.73;;;4.37;;
4174;SDS011;2101;48.290;14.382;2023-12-29T14:46:21;46.07;;;3.73;;
4174;SDS011;2101;48.290;14.382;2023-12-29T14:48:47;46.13;;;4.03;;
4174;SDS011;2101;48.290;14.382;2023-12-29T14:51:13;52.50;;;4.80;;
4174;SDS011;2101;48.290;14.382;2023-12-29T14:53:39;46.60;;;4.67;;
4174;SDS011;2101;48.290;14.382;2023-12-29T14:56:05;58.13;;;6.63;;
4174;SDS011;2101;48.290;14.382;2023-12-29T14:58:32;52.50;;;6.37;;
4174;SDS011;2101;48.290;14.382;2023-12-29T15:00:58;54.07;;;5.90;;